Wilson Creek (Missouri), Springfield (07052000)

StateMissouriLatestPoor (9 cfs)
RiverWilson CreekRatingObservedEstimated
Updated2026-05-10 13:30 (1 hour ago)Flood - The river is flooding. Obstacles can be treacherous or deadly. The river should be avoided at this stage for casual trips and definitely for the inexperienced. Trips should be attempted only with protective gear and equipment.Flood(none)86
Discharge9 cfs (median: 20 cfs)High - The river is high and potentially dangerous, especially for the young and / or inexperienced. Normal stream obstacles are sometimes difficult to navigate. Extended distances can be attempted, but canoe travel may not be advisable.High(none)86
Height2.15 feetGood - Conditions are ideal for a canoe or kayak. Boats typically will drag on fewer than one-quarter of riffles, if at all, and portages are unnecessary or rare. Normal float lengths can be attempted without a problem.Good(none)25
TrendSteady (falling over 24 hours)Low - River is low but can still be floated. Some riffles are okay but most come with significant dragging and might need a portage. Float lengths should be reduced to accommodate low flow, dragging, and portages.Low(none)14
USGSExternal icon USGS Site (External icon Duck Duck Go Maps)Poor - River is too low to float comfortably. Most or all riffles will drag or must be portaged and some obstacles (such as slick shelf rock) cause undue problems. Avoid the river at this stage for casual paddling trips.Poor(none)11

Trending Data

Plot Image

Trips for Wilson Creek (Missouri), Springfield (07052000)

DateStartEndDistanceConditionDischargeHeightFishingDetails

A total of 0 rows are displayed.

Condition Descriptions

Fishing Conditions

Fish Species

Notes

Classic Trip List

The classic River Trips application is still available for use. It is updated with the new system using a data retrofit. It is no longer maintained. The original River Trips application is no longer updated (as of 1 Dec 2016) but can be checked for errors or for the condition of the data before it was converted to the new system.

Gauge Data Table

ObservationHeightDischargeMaximum
Discharge
Minimum
Discharge
Mean
Discharge
P05P10P20P25P50
(Median)
P75P80P90P95
2026-05-10 13:30 2.15 9 346 (2006) 2 (2001) 33 4 5 8 8 20 33 36 72 143
2026-05-10 12:30 2.15 9 346 (2006) 2 (2001) 33 4 5 8 8 20 33 36 72 143
2026-05-10 11:30 2.15 9 346 (2006) 2 (2001) 33 4 5 8 8 20 33 36 72 143
2026-05-10 10:30 2.15 9 346 (2006) 2 (2001) 33 4 5 8 8 20 33 36 72 143
2026-05-10 09:30 2.16 9 346 (2006) 2 (2001) 33 4 5 8 8 20 33 36 72 143
2026-05-10 08:30 2.15 9 346 (2006) 2 (2001) 33 4 5 8 8 20 33 36 72 143
2026-05-10 07:30 2.15 9 346 (2006) 2 (2001) 33 4 5 8 8 20 33 36 72 143
2026-05-10 06:30 2.16 9 346 (2006) 2 (2001) 33 4 5 8 8 20 33 36 72 143
2026-05-10 05:30 2.15 9 346 (2006) 2 (2001) 33 4 5 8 8 20 33 36 72 143
2026-05-10 04:30 2.16 9 346 (2006) 2 (2001) 33 4 5 8 8 20 33 36 72 143
2026-05-10 03:30 2.16 9 346 (2006) 2 (2001) 33 4 5 8 8 20 33 36 72 143
2026-05-10 02:30 2.16 9 346 (2006) 2 (2001) 33 4 5 8 8 20 33 36 72 143
2026-05-10 01:30 2.16 9 346 (2006) 2 (2001) 33 4 5 8 8 20 33 36 72 143
2026-05-10 00:30 2.16 9 346 (2006) 2 (2001) 33 4 5 8 8 20 33 36 72 143
2026-05-09 23:30 2.17 10 346 (2006) 2 (2001) 33 4 5 8 8 20 33 36 72 143
2026-05-09 22:30 2.16 9 219 (2021) 2 (2001) 33 4 5 8 10 23 32 43 59 204
2026-05-09 21:30 2.17 10 219 (2021) 2 (2001) 33 4 5 8 10 23 32 43 59 204
2026-05-09 20:30 2.17 10 219 (2021) 2 (2001) 33 4 5 8 10 23 32 43 59 204
2026-05-09 19:30 2.17 10 219 (2021) 2 (2001) 33 4 5 8 10 23 32 43 59 204
2026-05-09 18:30 2.17 10 219 (2021) 2 (2001) 33 4 5 8 10 23 32 43 59 204
2026-05-09 17:30 2.17 10 219 (2021) 2 (2001) 33 4 5 8 10 23 32 43 59 204
2026-05-09 16:30 2.18 10 219 (2021) 2 (2001) 33 4 5 8 10 23 32 43 59 204
2026-05-09 15:30 2.18 10 219 (2021) 2 (2001) 33 4 5 8 10 23 32 43 59 204
2026-05-09 14:30 2.19 10 219 (2021) 2 (2001) 33 4 5 8 10 23 32 43 59 204
2026-05-09 13:30 2.19 10 219 (2021) 2 (2001) 33 4 5 8 10 23 32 43 59 204
2026-05-09 12:30 2.19 10 219 (2021) 2 (2001) 33 4 5 8 10 23 32 43 59 204
2026-05-09 11:30 2.20 11 219 (2021) 2 (2001) 33 4 5 8 10 23 32 43 59 204
2026-05-09 10:30 2.21 11 219 (2021) 2 (2001) 33 4 5 8 10 23 32 43 59 204
2026-05-09 09:30 2.22 12 219 (2021) 2 (2001) 33 4 5 8 10 23 32 43 59 204
2026-05-09 08:30 2.23 12 219 (2021) 2 (2001) 33 4 5 8 10 23 32 43 59 204
2026-05-09 07:30 2.25 13 219 (2021) 2 (2001) 33 4 5 8 10 23 32 43 59 204
2026-05-09 06:30 2.28 15 219 (2021) 2 (2001) 33 4 5 8 10 23 32 43 59 204
2026-05-09 05:30 2.32 17 219 (2021) 2 (2001) 33 4 5 8 10 23 32 43 59 204
2026-05-09 04:30 2.37 20 219 (2021) 2 (2001) 33 4 5 8 10 23 32 43 59 204
2026-05-09 03:30 2.43 24 219 (2021) 2 (2001) 33 4 5 8 10 23 32 43 59 204
2026-05-09 02:30 2.50 29 219 (2021) 2 (2001) 33 4 5 8 10 23 32 43 59 204
2026-05-09 01:30 2.59 37 219 (2021) 2 (2001) 33 4 5 8 10 23 32 43 59 204
2026-05-09 00:30 2.72 51 219 (2021) 2 (2001) 33 4 5 8 10 23 32 43 59 204
2026-05-08 23:30 2.18 10 219 (2021) 2 (2001) 33 4 5 8 10 23 32 43 59 204
2026-05-08 22:30 2.18 10 878 (2002) 2 (2000) 51 3 4 7 9 20 37 39 78 293
2026-05-08 21:30 2.18 10 878 (2002) 2 (2000) 51 3 4 7 9 20 37 39 78 293
2026-05-08 20:30 2.18 10 878 (2002) 2 (2000) 51 3 4 7 9 20 37 39 78 293
2026-05-08 19:30 2.18 10 878 (2002) 2 (2000) 51 3 4 7 9 20 37 39 78 293
2026-05-08 18:30 2.18 10 878 (2002) 2 (2000) 51 3 4 7 9 20 37 39 78 293
2026-05-08 17:30 2.18 10 878 (2002) 2 (2000) 51 3 4 7 9 20 37 39 78 293
2026-05-08 16:30 2.19 10 878 (2002) 2 (2000) 51 3 4 7 9 20 37 39 78 293
2026-05-08 15:30 2.17 10 878 (2002) 2 (2000) 51 3 4 7 9 20 37 39 78 293
2026-05-08 14:30 2.18 10 878 (2002) 2 (2000) 51 3 4 7 9 20 37 39 78 293
2026-05-08 13:30 2.18 10 878 (2002) 2 (2000) 51 3 4 7 9 20 37 39 78 293
2026-05-08 12:30 2.17 10 878 (2002) 2 (2000) 51 3 4 7 9 20 37 39 78 293
2026-05-08 11:30 2.18 10 878 (2002) 2 (2000) 51 3 4 7 9 20 37 39 78 293
2026-05-08 10:30 2.18 10 878 (2002) 2 (2000) 51 3 4 7 9 20 37 39 78 293
2026-05-08 09:30 2.18 10 878 (2002) 2 (2000) 51 3 4 7 9 20 37 39 78 293
2026-05-08 08:30 2.19 10 878 (2002) 2 (2000) 51 3 4 7 9 20 37 39 78 293
2026-05-08 07:30 2.18 10 878 (2002) 2 (2000) 51 3 4 7 9 20 37 39 78 293
2026-05-08 06:30 2.18 10 878 (2002) 2 (2000) 51 3 4 7 9 20 37 39 78 293
2026-05-08 05:30 2.18 10 878 (2002) 2 (2000) 51 3 4 7 9 20 37 39 78 293
2026-05-08 04:30 2.18 10 878 (2002) 2 (2000) 51 3 4 7 9 20 37 39 78 293
2026-05-08 03:30 2.19 10 878 (2002) 2 (2000) 51 3 4 7 9 20 37 39 78 293
2026-05-08 02:30 2.18 10 878 (2002) 2 (2000) 51 3 4 7 9 20 37 39 78 293
2026-05-08 01:30 2.18 10 878 (2002) 2 (2000) 51 3 4 7 9 20 37 39 78 293
2026-05-08 00:30 2.18 10 878 (2002) 2 (2000) 51 3 4 7 9 20 37 39 78 293
2026-05-07 23:30 2.19 10 878 (2002) 2 (2000) 51 3 4 7 9 20 37 39 78 293
2026-05-07 22:30 2.19 10 755 (2024) 3 (2000) 54 4 4 7 9 20 34 37 152 345
2026-05-07 21:30 2.19 10 755 (2024) 3 (2000) 54 4 4 7 9 20 34 37 152 345
2026-05-07 20:30 2.19 10 755 (2024) 3 (2000) 54 4 4 7 9 20 34 37 152 345
2026-05-07 19:30 2.19 10 755 (2024) 3 (2000) 54 4 4 7 9 20 34 37 152 345
2026-05-07 18:30 2.19 10 755 (2024) 3 (2000) 54 4 4 7 9 20 34 37 152 345
2026-05-07 17:30 2.19 10 755 (2024) 3 (2000) 54 4 4 7 9 20 34 37 152 345
2026-05-07 16:30 2.20 11 755 (2024) 3 (2000) 54 4 4 7 9 20 34 37 152 345
2026-05-07 15:30 2.20 11 755 (2024) 3 (2000) 54 4 4 7 9 20 34 37 152 345
2026-05-07 14:30 2.21 11 755 (2024) 3 (2000) 54 4 4 7 9 20 34 37 152 345
2026-05-07 13:30 2.21 11 755 (2024) 3 (2000) 54 4 4 7 9 20 34 37 152 345
2026-05-07 12:30 2.20 11 755 (2024) 3 (2000) 54 4 4 7 9 20 34 37 152 345
2026-05-07 11:30 2.20 11 755 (2024) 3 (2000) 54 4 4 7 9 20 34 37 152 345
2026-05-07 10:30 2.20 11 755 (2024) 3 (2000) 54 4 4 7 9 20 34 37 152 345
2026-05-07 09:30 2.20 11 755 (2024) 3 (2000) 54 4 4 7 9 20 34 37 152 345
2026-05-07 08:30 2.20 11 755 (2024) 3 (2000) 54 4 4 7 9 20 34 37 152 345
2026-05-07 07:30 2.20 11 755 (2024) 3 (2000) 54 4 4 7 9 20 34 37 152 345
2026-05-07 06:30 2.20 11 755 (2024) 3 (2000) 54 4 4 7 9 20 34 37 152 345
2026-05-07 05:30 2.20 11 755 (2024) 3 (2000) 54 4 4 7 9 20 34 37 152 345
2026-05-07 04:30 2.20 11 755 (2024) 3 (2000) 54 4 4 7 9 20 34 37 152 345
2026-05-07 03:30 2.20 11 755 (2024) 3 (2000) 54 4 4 7 9 20 34 37 152 345
2026-05-07 02:30 2.20 11 755 (2024) 3 (2000) 54 4 4 7 9 20 34 37 152 345
2026-05-07 01:30 2.20 11 755 (2024) 3 (2000) 54 4 4 7 9 20 34 37 152 345
2026-05-07 00:30 2.20 11 755 (2024) 3 (2000) 54 4 4 7 9 20 34 37 152 345
2026-05-06 23:30 2.20 11 755 (2024) 3 (2000) 54 4 4 7 9 20 34 37 152 345
2026-05-06 22:30 2.20 11 89 (2022) 4 (2014) 21 4 5 7 8 14 31 37 43 64
2026-05-06 21:30 2.20 11 89 (2022) 4 (2014) 21 4 5 7 8 14 31 37 43 64
2026-05-06 20:30 2.21 11 89 (2022) 4 (2014) 21 4 5 7 8 14 31 37 43 64
2026-05-06 19:30 2.21 11 89 (2022) 4 (2014) 21 4 5 7 8 14 31 37 43 64
2026-05-06 18:30 2.21 11 89 (2022) 4 (2014) 21 4 5 7 8 14 31 37 43 64
2026-05-06 17:30 2.21 11 89 (2022) 4 (2014) 21 4 5 7 8 14 31 37 43 64
2026-05-06 16:30 2.21 11 89 (2022) 4 (2014) 21 4 5 7 8 14 31 37 43 64
2026-05-06 15:30 2.22 12 89 (2022) 4 (2014) 21 4 5 7 8 14 31 37 43 64
2026-05-06 14:30 2.22 12 89 (2022) 4 (2014) 21 4 5 7 8 14 31 37 43 64
2026-05-06 13:30 2.22 12 89 (2022) 4 (2014) 21 4 5 7 8 14 31 37 43 64
2026-05-06 12:30 2.22 12 89 (2022) 4 (2014) 21 4 5 7 8 14 31 37 43 64
2026-05-06 11:30 2.22 12 89 (2022) 4 (2014) 21 4 5 7 8 14 31 37 43 64
2026-05-06 10:30 2.22 12 89 (2022) 4 (2014) 21 4 5 7 8 14 31 37 43 64
2026-05-06 09:30 2.21 11 89 (2022) 4 (2014) 21 4 5 7 8 14 31 37 43 64
2026-05-06 08:30 2.22 12 89 (2022) 4 (2014) 21 4 5 7 8 14 31 37 43 64
2026-05-06 07:30 2.22 12 89 (2022) 4 (2014) 21 4 5 7 8 14 31 37 43 64
2026-05-06 06:30 2.22 12 89 (2022) 4 (2014) 21 4 5 7 8 14 31 37 43 64
2026-05-06 05:30 2.22 12 89 (2022) 4 (2014) 21 4 5 7 8 14 31 37 43 64
2026-05-06 04:30 2.23 12 89 (2022) 4 (2014) 21 4 5 7 8 14 31 37 43 64
2026-05-06 03:30 2.23 12 89 (2022) 4 (2014) 21 4 5 7 8 14 31 37 43 64
2026-05-06 02:30 2.24 13 89 (2022) 4 (2014) 21 4 5 7 8 14 31 37 43 64
2026-05-06 01:30 2.24 13 89 (2022) 4 (2014) 21 4 5 7 8 14 31 37 43 64
2026-05-06 00:30 2.25 13 89 (2022) 4 (2014) 21 4 5 7 8 14 31 37 43 64
2026-05-05 23:30 2.26 14 89 (2022) 4 (2014) 21 4 5 7 8 14 31 37 43 64
2026-05-05 22:30 2.27 14 898 (2022) 3 (2000) 47 4 4 5 7 15 29 36 69 240
2026-05-05 21:30 2.26 14 898 (2022) 3 (2000) 47 4 4 5 7 15 29 36 69 240
2026-05-05 20:30 2.23 12 898 (2022) 3 (2000) 47 4 4 5 7 15 29 36 69 240
2026-05-05 19:30 2.23 12 898 (2022) 3 (2000) 47 4 4 5 7 15 29 36 69 240
2026-05-05 18:30 2.22 12 898 (2022) 3 (2000) 47 4 4 5 7 15 29 36 69 240
2026-05-05 17:30 2.22 12 898 (2022) 3 (2000) 47 4 4 5 7 15 29 36 69 240
2026-05-05 16:30 2.22 12 898 (2022) 3 (2000) 47 4 4 5 7 15 29 36 69 240
2026-05-05 15:30 2.22 12 898 (2022) 3 (2000) 47 4 4 5 7 15 29 36 69 240
2026-05-05 14:30 2.22 12 898 (2022) 3 (2000) 47 4 4 5 7 15 29 36 69 240
2026-05-05 13:30 2.22 12 898 (2022) 3 (2000) 47 4 4 5 7 15 29 36 69 240
2026-05-05 12:30 2.22 12 898 (2022) 3 (2000) 47 4 4 5 7 15 29 36 69 240
2026-05-05 11:30 2.22 12 898 (2022) 3 (2000) 47 4 4 5 7 15 29 36 69 240
2026-05-05 10:30 2.23 12 898 (2022) 3 (2000) 47 4 4 5 7 15 29 36 69 240
2026-05-05 09:30 2.30 16 898 (2022) 3 (2000) 47 4 4 5 7 15 29 36 69 240
2026-05-05 08:30 2.23 12 898 (2022) 3 (2000) 47 4 4 5 7 15 29 36 69 240
2026-05-05 07:30 2.23 12 898 (2022) 3 (2000) 47 4 4 5 7 15 29 36 69 240
2026-05-05 06:30 2.23 12 898 (2022) 3 (2000) 47 4 4 5 7 15 29 36 69 240
2026-05-05 05:30 2.23 12 898 (2022) 3 (2000) 47 4 4 5 7 15 29 36 69 240
2026-05-05 04:30 2.23 12 898 (2022) 3 (2000) 47 4 4 5 7 15 29 36 69 240
2026-05-05 03:30 2.24 13 898 (2022) 3 (2000) 47 4 4 5 7 15 29 36 69 240
2026-05-05 02:30 2.24 13 898 (2022) 3 (2000) 47 4 4 5 7 15 29 36 69 240
2026-05-05 01:30 2.24 13 898 (2022) 3 (2000) 47 4 4 5 7 15 29 36 69 240
2026-05-05 00:30 2.24 13 898 (2022) 3 (2000) 47 4 4 5 7 15 29 36 69 240
2026-05-04 23:30 2.24 13 898 (2022) 3 (2000) 47 4 4 5 7 15 29 36 69 240
2026-05-04 22:30 2.24 13 484 (1999) 3 (2001) 42 3 4 6 6 18 37 48 111 235
2026-05-04 21:30 2.24 13 484 (1999) 3 (2001) 42 3 4 6 6 18 37 48 111 235
2026-05-04 20:30 2.24 13 484 (1999) 3 (2001) 42 3 4 6 6 18 37 48 111 235
2026-05-04 19:30 2.24 13 484 (1999) 3 (2001) 42 3 4 6 6 18 37 48 111 235
2026-05-04 18:30 2.25 13 484 (1999) 3 (2001) 42 3 4 6 6 18 37 48 111 235
2026-05-04 17:30 2.25 13 484 (1999) 3 (2001) 42 3 4 6 6 18 37 48 111 235
2026-05-04 16:30 2.25 13 484 (1999) 3 (2001) 42 3 4 6 6 18 37 48 111 235
2026-05-04 15:30 2.25 13 484 (1999) 3 (2001) 42 3 4 6 6 18 37 48 111 235
2026-05-04 14:30 2.25 13 484 (1999) 3 (2001) 42 3 4 6 6 18 37 48 111 235
2026-05-04 13:30 2.25 13 484 (1999) 3 (2001) 42 3 4 6 6 18 37 48 111 235
2026-05-04 12:30 2.25 13 484 (1999) 3 (2001) 42 3 4 6 6 18 37 48 111 235
2026-05-04 11:30 2.25 13 484 (1999) 3 (2001) 42 3 4 6 6 18 37 48 111 235
2026-05-04 10:30 2.25 13 484 (1999) 3 (2001) 42 3 4 6 6 18 37 48 111 235
2026-05-04 09:30 2.25 13 484 (1999) 3 (2001) 42 3 4 6 6 18 37 48 111 235
2026-05-04 08:30 2.26 14 484 (1999) 3 (2001) 42 3 4 6 6 18 37 48 111 235
2026-05-04 07:30 2.25 13 484 (1999) 3 (2001) 42 3 4 6 6 18 37 48 111 235
2026-05-04 06:30 2.26 14 484 (1999) 3 (2001) 42 3 4 6 6 18 37 48 111 235
2026-05-04 05:30 2.25 13 484 (1999) 3 (2001) 42 3 4 6 6 18 37 48 111 235
2026-05-04 04:30 2.26 14 484 (1999) 3 (2001) 42 3 4 6 6 18 37 48 111 235
2026-05-04 03:30 2.26 14 484 (1999) 3 (2001) 42 3 4 6 6 18 37 48 111 235
2026-05-04 02:30 2.26 14 484 (1999) 3 (2001) 42 3 4 6 6 18 37 48 111 235
2026-05-04 01:30 2.26 14 484 (1999) 3 (2001) 42 3 4 6 6 18 37 48 111 235
2026-05-04 00:30 2.26 14 484 (1999) 3 (2001) 42 3 4 6 6 18 37 48 111 235
2026-05-03 23:30 2.26 14 484 (1999) 3 (2001) 42 3 4 6 6 18 37 48 111 235
2026-05-03 22:30 2.26 14 368 (2017) 3 (2001) 39 3 4 6 6 17 51 56 106 162
2026-05-03 21:30 2.27 14 368 (2017) 3 (2001) 39 3 4 6 6 17 51 56 106 162
2026-05-03 20:30 2.27 14 368 (2017) 3 (2001) 39 3 4 6 6 17 51 56 106 162
2026-05-03 19:30 2.27 14 368 (2017) 3 (2001) 39 3 4 6 6 17 51 56 106 162
2026-05-03 18:30 2.27 14 368 (2017) 3 (2001) 39 3 4 6 6 17 51 56 106 162
2026-05-03 17:30 2.27 14 368 (2017) 3 (2001) 39 3 4 6 6 17 51 56 106 162
2026-05-03 16:30 2.27 14 368 (2017) 3 (2001) 39 3 4 6 6 17 51 56 106 162
2026-05-03 15:30 2.27 14 368 (2017) 3 (2001) 39 3 4 6 6 17 51 56 106 162
2026-05-03 14:30 2.28 15 368 (2017) 3 (2001) 39 3 4 6 6 17 51 56 106 162
2026-05-03 13:30 2.28 15 368 (2017) 3 (2001) 39 3 4 6 6 17 51 56 106 162
2026-05-03 12:30 2.28 15 368 (2017) 3 (2001) 39 3 4 6 6 17 51 56 106 162
2026-05-03 11:30 2.27 14 368 (2017) 3 (2001) 39 3 4 6 6 17 51 56 106 162
2026-05-03 10:30 2.28 15 368 (2017) 3 (2001) 39 3 4 6 6 17 51 56 106 162
2026-05-03 09:30 2.28 15 368 (2017) 3 (2001) 39 3 4 6 6 17 51 56 106 162
2026-05-03 08:30 2.28 15 368 (2017) 3 (2001) 39 3 4 6 6 17 51 56 106 162
2026-05-03 07:30 2.28 15 368 (2017) 3 (2001) 39 3 4 6 6 17 51 56 106 162
2026-05-03 06:30 2.28 15 368 (2017) 3 (2001) 39 3 4 6 6 17 51 56 106 162
2026-05-03 05:30 2.28 15 368 (2017) 3 (2001) 39 3 4 6 6 17 51 56 106 162
2026-05-03 04:30 2.29 15 368 (2017) 3 (2001) 39 3 4 6 6 17 51 56 106 162
2026-05-03 03:30 2.29 15 368 (2017) 3 (2001) 39 3 4 6 6 17 51 56 106 162
2026-05-03 02:30 2.29 15 368 (2017) 3 (2001) 39 3 4 6 6 17 51 56 106 162
2026-05-03 01:30 2.29 15 368 (2017) 3 (2001) 39 3 4 6 6 17 51 56 106 162
2026-05-03 00:30 2.29 15 368 (2017) 3 (2001) 39 3 4 6 6 17 51 56 106 162
2026-05-02 23:30 2.28 15 368 (2017) 3 (2001) 39 3 4 6 6 17 51 56 106 162
2026-05-02 22:30 2.29 15 149 (2009) 3 (2001) 29 3 5 7 7 16 33 47 77 134
2026-05-02 21:30 2.29 15 149 (2009) 3 (2001) 29 3 5 7 7 16 33 47 77 134
2026-05-02 20:30 2.29 15 149 (2009) 3 (2001) 29 3 5 7 7 16 33 47 77 134
2026-05-02 19:30 2.29 15 149 (2009) 3 (2001) 29 3 5 7 7 16 33 47 77 134
2026-05-02 18:30 2.30 16 149 (2009) 3 (2001) 29 3 5 7 7 16 33 47 77 134
2026-05-02 17:30 2.29 15 149 (2009) 3 (2001) 29 3 5 7 7 16 33 47 77 134
2026-05-02 16:30 2.30 16 149 (2009) 3 (2001) 29 3 5 7 7 16 33 47 77 134
2026-05-02 15:30 2.30 16 149 (2009) 3 (2001) 29 3 5 7 7 16 33 47 77 134
2026-05-02 14:30 2.30 16 149 (2009) 3 (2001) 29 3 5 7 7 16 33 47 77 134
2026-05-02 13:30 2.32 17 149 (2009) 3 (2001) 29 3 5 7 7 16 33 47 77 134
2026-05-02 12:30 2.30 16 149 (2009) 3 (2001) 29 3 5 7 7 16 33 47 77 134
2026-05-02 11:30 2.31 16 149 (2009) 3 (2001) 29 3 5 7 7 16 33 47 77 134
2026-05-02 10:30 2.31 16 149 (2009) 3 (2001) 29 3 5 7 7 16 33 47 77 134
2026-05-02 09:30 2.32 17 149 (2009) 3 (2001) 29 3 5 7 7 16 33 47 77 134
2026-05-02 08:30 2.31 16 149 (2009) 3 (2001) 29 3 5 7 7 16 33 47 77 134
2026-05-02 07:30 2.32 17 149 (2009) 3 (2001) 29 3 5 7 7 16 33 47 77 134
2026-05-02 06:30 2.31 16 149 (2009) 3 (2001) 29 3 5 7 7 16 33 47 77 134
2026-05-02 05:30 2.32 17 149 (2009) 3 (2001) 29 3 5 7 7 16 33 47 77 134
2026-05-02 04:30 2.32 17 149 (2009) 3 (2001) 29 3 5 7 7 16 33 47 77 134
2026-05-02 03:30 2.32 17 149 (2009) 3 (2001) 29 3 5 7 7 16 33 47 77 134
2026-05-02 02:30 2.32 17 149 (2009) 3 (2001) 29 3 5 7 7 16 33 47 77 134
2026-05-02 01:30 2.33 18 149 (2009) 3 (2001) 29 3 5 7 7 16 33 47 77 134
2026-05-02 00:30 2.33 18 149 (2009) 3 (2001) 29 3 5 7 7 16 33 47 77 134
2026-05-01 23:30 2.33 18 149 (2009) 3 (2001) 29 3 5 7 7 16 33 47 77 134
2026-05-01 22:30 2.33 18 950 (2009) 3 (2001) 62 3 6 8 9 17 43 50 157 344
2026-05-01 21:30 2.33 18 950 (2009) 3 (2001) 62 3 6 8 9 17 43 50 157 344
2026-05-01 20:30 2.33 18 950 (2009) 3 (2001) 62 3 6 8 9 17 43 50 157 344
2026-05-01 19:30 2.33 18 950 (2009) 3 (2001) 62 3 6 8 9 17 43 50 157 344
2026-05-01 18:30 2.34 18 950 (2009) 3 (2001) 62 3 6 8 9 17 43 50 157 344
2026-05-01 17:30 2.35 19 950 (2009) 3 (2001) 62 3 6 8 9 17 43 50 157 344
2026-05-01 16:30 2.35 19 950 (2009) 3 (2001) 62 3 6 8 9 17 43 50 157 344
2026-05-01 15:30 2.35 19 950 (2009) 3 (2001) 62 3 6 8 9 17 43 50 157 344
2026-05-01 14:30 2.35 19 950 (2009) 3 (2001) 62 3 6 8 9 17 43 50 157 344
2026-05-01 13:30 2.36 19 950 (2009) 3 (2001) 62 3 6 8 9 17 43 50 157 344
2026-05-01 12:30 2.36 19 950 (2009) 3 (2001) 62 3 6 8 9 17 43 50 157 344
2026-05-01 11:30 2.35 19 950 (2009) 3 (2001) 62 3 6 8 9 17 43 50 157 344
2026-05-01 10:30 2.36 19 950 (2009) 3 (2001) 62 3 6 8 9 17 43 50 157 344
2026-05-01 09:30 2.36 19 950 (2009) 3 (2001) 62 3 6 8 9 17 43 50 157 344
2026-05-01 08:30 2.36 19 950 (2009) 3 (2001) 62 3 6 8 9 17 43 50 157 344
2026-05-01 07:30 2.36 19 950 (2009) 3 (2001) 62 3 6 8 9 17 43 50 157 344
2026-05-01 06:30 2.37 20 950 (2009) 3 (2001) 62 3 6 8 9 17 43 50 157 344
2026-05-01 05:30 2.37 20 950 (2009) 3 (2001) 62 3 6 8 9 17 43 50 157 344
2026-05-01 04:30 2.38 21 950 (2009) 3 (2001) 62 3 6 8 9 17 43 50 157 344
2026-05-01 03:30 2.38 21 950 (2009) 3 (2001) 62 3 6 8 9 17 43 50 157 344
2026-05-01 02:30 2.38 21 950 (2009) 3 (2001) 62 3 6 8 9 17 43 50 157 344
2026-05-01 01:30 2.39 21 950 (2009) 3 (2001) 62 3 6 8 9 17 43 50 157 344
2026-05-01 00:30 2.39 21 950 (2009) 3 (2001) 62 3 6 8 9 17 43 50 157 344
2026-04-30 23:30 2.40 22 950 (2009) 3 (2001) 62 3 6 8 9 17 43 50 157 344
2026-04-30 22:30 2.40 22 637 (2017) 2 (2000) 48 3 5 7 9 18 39 43 101 264
2026-04-30 21:30 2.41 23 637 (2017) 2 (2000) 48 3 5 7 9 18 39 43 101 264
2026-04-30 20:30 2.41 23 637 (2017) 2 (2000) 48 3 5 7 9 18 39 43 101 264
2026-04-30 19:30 2.41 23 637 (2017) 2 (2000) 48 3 5 7 9 18 39 43 101 264
2026-04-30 18:30 2.41 23 637 (2017) 2 (2000) 48 3 5 7 9 18 39 43 101 264
2026-04-30 17:30 2.41 23 637 (2017) 2 (2000) 48 3 5 7 9 18 39 43 101 264
2026-04-30 16:30 2.41 23 637 (2017) 2 (2000) 48 3 5 7 9 18 39 43 101 264
2026-04-30 15:30 2.42 23 637 (2017) 2 (2000) 48 3 5 7 9 18 39 43 101 264
2026-04-30 14:30 2.42 23 637 (2017) 2 (2000) 48 3 5 7 9 18 39 43 101 264
2026-04-30 13:30 2.43 24 637 (2017) 2 (2000) 48 3 5 7 9 18 39 43 101 264
2026-04-30 12:30 2.43 24 637 (2017) 2 (2000) 48 3 5 7 9 18 39 43 101 264
2026-04-30 11:30 2.43 24 637 (2017) 2 (2000) 48 3 5 7 9 18 39 43 101 264
2026-04-30 10:30 2.44 25 637 (2017) 2 (2000) 48 3 5 7 9 18 39 43 101 264
2026-04-30 09:30 2.44 25 637 (2017) 2 (2000) 48 3 5 7 9 18 39 43 101 264
2026-04-30 08:30 2.44 25 637 (2017) 2 (2000) 48 3 5 7 9 18 39 43 101 264
2026-04-30 07:30 2.45 26 637 (2017) 2 (2000) 48 3 5 7 9 18 39 43 101 264
2026-04-30 06:30 2.44 25 637 (2017) 2 (2000) 48 3 5 7 9 18 39 43 101 264
2026-04-30 05:30 2.45 26 637 (2017) 2 (2000) 48 3 5 7 9 18 39 43 101 264
2026-04-30 04:30 2.46 26 637 (2017) 2 (2000) 48 3 5 7 9 18 39 43 101 264
2026-04-30 03:30 2.46 26 637 (2017) 2 (2000) 48 3 5 7 9 18 39 43 101 264
2026-04-30 02:30 2.47 27 637 (2017) 2 (2000) 48 3 5 7 9 18 39 43 101 264
2026-04-30 01:30 2.47 27 637 (2017) 2 (2000) 48 3 5 7 9 18 39 43 101 264
2026-04-30 00:30 2.48 28 637 (2017) 2 (2000) 48 3 5 7 9 18 39 43 101 264
2026-04-29 23:30 2.48 28 637 (2017) 2 (2000) 48 3 5 7 9 18 39 43 101 264
2026-04-29 22:30 2.49 29 1360 (2017) 2 (2000) 68 3 5 7 8 16 29 37 104 433
2026-04-29 21:30 2.49 29 1360 (2017) 2 (2000) 68 3 5 7 8 16 29 37 104 433
2026-04-29 20:30 2.50 29 1360 (2017) 2 (2000) 68 3 5 7 8 16 29 37 104 433
2026-04-29 19:30 2.51 30 1360 (2017) 2 (2000) 68 3 5 7 8 16 29 37 104 433
2026-04-29 18:30 2.51 30 1360 (2017) 2 (2000) 68 3 5 7 8 16 29 37 104 433
2026-04-29 17:30 2.52 31 1360 (2017) 2 (2000) 68 3 5 7 8 16 29 37 104 433
2026-04-29 16:30 2.53 32 1360 (2017) 2 (2000) 68 3 5 7 8 16 29 37 104 433
2026-04-29 15:30 2.53 32 1360 (2017) 2 (2000) 68 3 5 7 8 16 29 37 104 433
2026-04-29 14:30 2.56 35 1360 (2017) 2 (2000) 68 3 5 7 8 16 29 37 104 433
2026-04-29 13:30 2.56 35 1360 (2017) 2 (2000) 68 3 5 7 8 16 29 37 104 433
2026-04-29 12:30 2.56 35 1360 (2017) 2 (2000) 68 3 5 7 8 16 29 37 104 433
2026-04-29 11:30 2.59 37 1360 (2017) 2 (2000) 68 3 5 7 8 16 29 37 104 433
2026-04-29 10:30 2.61 39 1360 (2017) 2 (2000) 68 3 5 7 8 16 29 37 104 433
2026-04-29 09:30 2.64 42 1360 (2017) 2 (2000) 68 3 5 7 8 16 29 37 104 433
2026-04-29 08:30 2.68 46 1360 (2017) 2 (2000) 68 3 5 7 8 16 29 37 104 433
2026-04-29 07:30 2.68 46 1360 (2017) 2 (2000) 68 3 5 7 8 16 29 37 104 433
2026-04-29 06:30 2.71 50 1360 (2017) 2 (2000) 68 3 5 7 8 16 29 37 104 433
2026-04-29 05:30 2.74 53 1360 (2017) 2 (2000) 68 3 5 7 8 16 29 37 104 433
2026-04-29 04:30 2.77 57 1360 (2017) 2 (2000) 68 3 5 7 8 16 29 37 104 433
2026-04-29 03:30 2.81 62 1360 (2017) 2 (2000) 68 3 5 7 8 16 29 37 104 433
2026-04-29 02:30 2.86 68 1360 (2017) 2 (2000) 68 3 5 7 8 16 29 37 104 433
2026-04-29 01:30 2.92 77 1360 (2017) 2 (2000) 68 3 5 7 8 16 29 37 104 433
2026-04-29 00:30 2.99 87 1360 (2017) 2 (2000) 68 3 5 7 8 16 29 37 104 433
2026-04-28 23:30 3.06 96 1360 (2017) 2 (2000) 68 3 5 7 8 16 29 37 104 433
2026-04-28 22:30 3.15 106 267 (2024) 2 (2000) 31 3 5 8 9 18 33 41 68 148
2026-04-28 21:30 3.24 118 267 (2024) 2 (2000) 31 3 5 8 9 18 33 41 68 148
2026-04-28 20:30 3.29 125 267 (2024) 2 (2000) 31 3 5 8 9 18 33 41 68 148
2026-04-28 19:30 3.40 140 267 (2024) 2 (2000) 31 3 5 8 9 18 33 41 68 148
2026-04-28 18:30 3.65 173 267 (2024) 2 (2000) 31 3 5 8 9 18 33 41 68 148
2026-04-28 17:30 4.15 257 267 (2024) 2 (2000) 31 3 5 8 9 18 33 41 68 148
2026-04-28 16:30 4.90 420 267 (2024) 2 (2000) 31 3 5 8 9 18 33 41 68 148
2026-04-28 15:30 6.87 1010 267 (2024) 2 (2000) 31 3 5 8 9 18 33 41 68 148
2026-04-28 14:30 6.64 926 267 (2024) 2 (2000) 31 3 5 8 9 18 33 41 68 148
2026-04-28 13:30 4.07 241 267 (2024) 2 (2000) 31 3 5 8 9 18 33 41 68 148
2026-04-28 12:30 2.53 32 267 (2024) 2 (2000) 31 3 5 8 9 18 33 41 68 148
2026-04-28 11:30 2.22 12 267 (2024) 2 (2000) 31 3 5 8 9 18 33 41 68 148
2026-04-28 10:30 2.23 12 267 (2024) 2 (2000) 31 3 5 8 9 18 33 41 68 148
2026-04-28 09:30 2.23 12 267 (2024) 2 (2000) 31 3 5 8 9 18 33 41 68 148
2026-04-28 08:30 2.23 12 267 (2024) 2 (2000) 31 3 5 8 9 18 33 41 68 148
2026-04-28 07:30 2.24 13 267 (2024) 2 (2000) 31 3 5 8 9 18 33 41 68 148
2026-04-28 06:30 2.24 13 267 (2024) 2 (2000) 31 3 5 8 9 18 33 41 68 148
2026-04-28 05:30 2.25 13 267 (2024) 2 (2000) 31 3 5 8 9 18 33 41 68 148
2026-04-28 04:30 2.25 13 267 (2024) 2 (2000) 31 3 5 8 9 18 33 41 68 148
2026-04-28 03:30 2.26 14 267 (2024) 2 (2000) 31 3 5 8 9 18 33 41 68 148
2026-04-28 02:30 2.28 15 267 (2024) 2 (2000) 31 3 5 8 9 18 33 41 68 148
2026-04-28 01:30 2.30 16 267 (2024) 2 (2000) 31 3 5 8 9 18 33 41 68 148
2026-04-28 00:30 2.32 17 267 (2024) 2 (2000) 31 3 5 8 9 18 33 41 68 148
2026-04-27 23:30 2.36 19 267 (2024) 2 (2000) 31 3 5 8 9 18 33 41 68 148
2026-04-27 22:30 2.40 22 89 (2024) 2 (2000) 23 3 5 8 8 18 26 36 56 68
2026-04-27 21:30 2.47 27 89 (2024) 2 (2000) 23 3 5 8 8 18 26 36 56 68
2026-04-27 20:30 2.56 35 89 (2024) 2 (2000) 23 3 5 8 8 18 26 36 56 68
2026-04-27 19:30 2.64 42 89 (2024) 2 (2000) 23 3 5 8 8 18 26 36 56 68
2026-04-27 18:30 2.35 19 89 (2024) 2 (2000) 23 3 5 8 8 18 26 36 56 68
2026-04-27 17:30 2.27 14 89 (2024) 2 (2000) 23 3 5 8 8 18 26 36 56 68
2026-04-27 16:30 2.25 13 89 (2024) 2 (2000) 23 3 5 8 8 18 26 36 56 68
2026-04-27 15:30 2.24 13 89 (2024) 2 (2000) 23 3 5 8 8 18 26 36 56 68
2026-04-27 14:30 2.24 13 89 (2024) 2 (2000) 23 3 5 8 8 18 26 36 56 68
2026-04-27 13:30 2.25 13 89 (2024) 2 (2000) 23 3 5 8 8 18 26 36 56 68
2026-04-27 12:30 2.25 13 89 (2024) 2 (2000) 23 3 5 8 8 18 26 36 56 68
2026-04-27 11:30 2.23 12 89 (2024) 2 (2000) 23 3 5 8 8 18 26 36 56 68
2026-04-27 10:30 2.23 12 89 (2024) 2 (2000) 23 3 5 8 8 18 26 36 56 68
2026-04-27 09:30 2.23 12 89 (2024) 2 (2000) 23 3 5 8 8 18 26 36 56 68
2026-04-27 08:30 2.23 12 89 (2024) 2 (2000) 23 3 5 8 8 18 26 36 56 68
2026-04-27 07:30 2.23 12 89 (2024) 2 (2000) 23 3 5 8 8 18 26 36 56 68
2026-04-27 06:30 2.24 13 89 (2024) 2 (2000) 23 3 5 8 8 18 26 36 56 68
2026-04-27 05:30 2.24 13 89 (2024) 2 (2000) 23 3 5 8 8 18 26 36 56 68
2026-04-27 04:30 2.24 13 89 (2024) 2 (2000) 23 3 5 8 8 18 26 36 56 68
2026-04-27 03:30 2.24 13 89 (2024) 2 (2000) 23 3 5 8 8 18 26 36 56 68
2026-04-27 02:30 2.24 13 89 (2024) 2 (2000) 23 3 5 8 8 18 26 36 56 68
2026-04-27 01:30 2.24 13 89 (2024) 2 (2000) 23 3 5 8 8 18 26 36 56 68
2026-04-27 00:30 2.24 13 89 (2024) 2 (2000) 23 3 5 8 8 18 26 36 56 68
2026-04-26 23:30 2.24 13 89 (2024) 2 (2000) 23 3 5 8 8 18 26 36 56 68
2026-04-26 22:30 2.25 13 374 (2024) 3 (2000) 38 3 4 6 9 18 29 35 112 168
2026-04-26 21:30 2.25 13 374 (2024) 3 (2000) 38 3 4 6 9 18 29 35 112 168
2026-04-26 20:30 2.25 13 374 (2024) 3 (2000) 38 3 4 6 9 18 29 35 112 168
2026-04-26 19:30 2.25 13 374 (2024) 3 (2000) 38 3 4 6 9 18 29 35 112 168
2026-04-26 18:30 2.25 13 374 (2024) 3 (2000) 38 3 4 6 9 18 29 35 112 168
2026-04-26 17:30 2.26 14 374 (2024) 3 (2000) 38 3 4 6 9 18 29 35 112 168
2026-04-26 16:30 2.27 14 374 (2024) 3 (2000) 38 3 4 6 9 18 29 35 112 168
2026-04-26 15:30 2.29 15 374 (2024) 3 (2000) 38 3 4 6 9 18 29 35 112 168
2026-04-26 14:30 2.29 15 374 (2024) 3 (2000) 38 3 4 6 9 18 29 35 112 168
2026-04-26 13:30 2.29 15 374 (2024) 3 (2000) 38 3 4 6 9 18 29 35 112 168
2026-04-26 12:30 2.29 15 374 (2024) 3 (2000) 38 3 4 6 9 18 29 35 112 168
2026-04-26 11:30 2.29 15 374 (2024) 3 (2000) 38 3 4 6 9 18 29 35 112 168
2026-04-26 10:30 2.29 15 374 (2024) 3 (2000) 38 3 4 6 9 18 29 35 112 168
2026-04-26 09:30 2.29 15 374 (2024) 3 (2000) 38 3 4 6 9 18 29 35 112 168
2026-04-26 08:30 2.29 15 374 (2024) 3 (2000) 38 3 4 6 9 18 29 35 112 168
2026-04-26 07:30 2.29 15 374 (2024) 3 (2000) 38 3 4 6 9 18 29 35 112 168
2026-04-26 06:30 2.29 15 374 (2024) 3 (2000) 38 3 4 6 9 18 29 35 112 168
2026-04-26 05:30 2.29 15 374 (2024) 3 (2000) 38 3 4 6 9 18 29 35 112 168
2026-04-26 04:30 2.30 16 374 (2024) 3 (2000) 38 3 4 6 9 18 29 35 112 168
2026-04-26 03:30 2.30 16 374 (2024) 3 (2000) 38 3 4 6 9 18 29 35 112 168
2026-04-26 02:30 2.30 16 374 (2024) 3 (2000) 38 3 4 6 9 18 29 35 112 168
2026-04-26 01:30 2.30 16 374 (2024) 3 (2000) 38 3 4 6 9 18 29 35 112 168
2026-04-26 00:30 2.31 16 374 (2024) 3 (2000) 38 3 4 6 9 18 29 35 112 168
2026-04-25 23:30 2.31 16 374 (2024) 3 (2000) 38 3 4 6 9 18 29 35 112 168
2026-04-25 22:30 2.31 16 786 (2011) 3 (2000) 62 3 4 9 10 19 48 64 133 409
2026-04-25 21:30 2.31 16 786 (2011) 3 (2000) 62 3 4 9 10 19 48 64 133 409
2026-04-25 20:30 2.32 17 786 (2011) 3 (2000) 62 3 4 9 10 19 48 64 133 409
2026-04-25 19:30 2.32 17 786 (2011) 3 (2000) 62 3 4 9 10 19 48 64 133 409
2026-04-25 18:30 2.32 17 786 (2011) 3 (2000) 62 3 4 9 10 19 48 64 133 409
2026-04-25 17:30 2.33 18 786 (2011) 3 (2000) 62 3 4 9 10 19 48 64 133 409
2026-04-25 16:30 2.33 18 786 (2011) 3 (2000) 62 3 4 9 10 19 48 64 133 409
2026-04-25 15:30 2.33 18 786 (2011) 3 (2000) 62 3 4 9 10 19 48 64 133 409
2026-04-25 14:30 2.34 18 786 (2011) 3 (2000) 62 3 4 9 10 19 48 64 133 409
2026-04-25 13:30 2.35 19 786 (2011) 3 (2000) 62 3 4 9 10 19 48 64 133 409
2026-04-25 12:30 2.35 19 786 (2011) 3 (2000) 62 3 4 9 10 19 48 64 133 409
2026-04-25 11:30 2.36 19 786 (2011) 3 (2000) 62 3 4 9 10 19 48 64 133 409
2026-04-25 10:30 2.36 19 786 (2011) 3 (2000) 62 3 4 9 10 19 48 64 133 409
2026-04-25 09:30 2.36 19 786 (2011) 3 (2000) 62 3 4 9 10 19 48 64 133 409
2026-04-25 08:30 2.36 19 786 (2011) 3 (2000) 62 3 4 9 10 19 48 64 133 409
2026-04-25 07:30 2.37 20 786 (2011) 3 (2000) 62 3 4 9 10 19 48 64 133 409
2026-04-25 06:30 2.37 20 786 (2011) 3 (2000) 62 3 4 9 10 19 48 64 133 409
2026-04-25 05:30 2.37 20 786 (2011) 3 (2000) 62 3 4 9 10 19 48 64 133 409
2026-04-25 04:30 2.38 21 786 (2011) 3 (2000) 62 3 4 9 10 19 48 64 133 409
2026-04-25 03:30 2.38 21 786 (2011) 3 (2000) 62 3 4 9 10 19 48 64 133 409
2026-04-25 02:30 2.38 21 786 (2011) 3 (2000) 62 3 4 9 10 19 48 64 133 409
2026-04-25 01:30 2.39 21 786 (2011) 3 (2000) 62 3 4 9 10 19 48 64 133 409
2026-04-25 00:30 2.40 22 786 (2011) 3 (2000) 62 3 4 9 10 19 48 64 133 409
2026-04-24 23:30 2.41 23 786 (2011) 3 (2000) 62 3 4 9 10 19 48 64 133 409
2026-04-24 22:30 2.42 23 192 (2011) 4 (2001) 39 4 5 6 9 20 44 66 142 178
2026-04-24 21:30 2.43 24 192 (2011) 4 (2001) 39 4 5 6 9 20 44 66 142 178
2026-04-24 20:30 2.45 26 192 (2011) 4 (2001) 39 4 5 6 9 20 44 66 142 178
2026-04-24 19:30 2.46 26 192 (2011) 4 (2001) 39 4 5 6 9 20 44 66 142 178
2026-04-24 18:30 2.48 28 192 (2011) 4 (2001) 39 4 5 6 9 20 44 66 142 178
2026-04-24 17:30 2.51 30 192 (2011) 4 (2001) 39 4 5 6 9 20 44 66 142 178
2026-04-24 16:30 2.54 33 192 (2011) 4 (2001) 39 4 5 6 9 20 44 66 142 178
2026-04-24 15:30 2.57 35 192 (2011) 4 (2001) 39 4 5 6 9 20 44 66 142 178
2026-04-24 14:30 2.62 40 192 (2011) 4 (2001) 39 4 5 6 9 20 44 66 142 178
2026-04-24 13:30 2.66 44 192 (2011) 4 (2001) 39 4 5 6 9 20 44 66 142 178
2026-04-24 12:30 2.73 52 192 (2011) 4 (2001) 39 4 5 6 9 20 44 66 142 178
2026-04-24 11:30 2.78 58 192 (2011) 4 (2001) 39 4 5 6 9 20 44 66 142 178
2026-04-24 10:30 2.85 67 192 (2011) 4 (2001) 39 4 5 6 9 20 44 66 142 178
2026-04-24 09:30 2.95 81 192 (2011) 4 (2001) 39 4 5 6 9 20 44 66 142 178
2026-04-24 08:30 3.16 108 192 (2011) 4 (2001) 39 4 5 6 9 20 44 66 142 178
2026-04-24 07:30 3.62 169 192 (2011) 4 (2001) 39 4 5 6 9 20 44 66 142 178
2026-04-24 06:30 4.23 273 192 (2011) 4 (2001) 39 4 5 6 9 20 44 66 142 178
2026-04-24 05:30 4.06 240 192 (2011) 4 (2001) 39 4 5 6 9 20 44 66 142 178
2026-04-24 04:30 3.42 142 192 (2011) 4 (2001) 39 4 5 6 9 20 44 66 142 178
2026-04-24 03:30 2.41 23 192 (2011) 4 (2001) 39 4 5 6 9 20 44 66 142 178
2026-04-24 02:30 2.24 13 192 (2011) 4 (2001) 39 4 5 6 9 20 44 66 142 178
2026-04-24 01:30 2.22 12 192 (2011) 4 (2001) 39 4 5 6 9 20 44 66 142 178
2026-04-24 00:30 2.22 12 192 (2011) 4 (2001) 39 4 5 6 9 20 44 66 142 178
2026-04-23 23:30 2.22 12 192 (2011) 4 (2001) 39 4 5 6 9 20 44 66 142 178
2026-04-23 22:30 2.22 12 64 (2020) 4 (2016) 20 4 5 6 8 16 25 31 46 58
2026-04-23 21:30 2.22 12 64 (2020) 4 (2016) 20 4 5 6 8 16 25 31 46 58
2026-04-23 20:30 2.22 12 64 (2020) 4 (2016) 20 4 5 6 8 16 25 31 46 58
2026-04-23 19:30 2.22 12 64 (2020) 4 (2016) 20 4 5 6 8 16 25 31 46 58
2026-04-23 18:30 2.22 12 64 (2020) 4 (2016) 20 4 5 6 8 16 25 31 46 58
2026-04-23 17:30 2.22 12 64 (2020) 4 (2016) 20 4 5 6 8 16 25 31 46 58
2026-04-23 16:30 2.23 12 64 (2020) 4 (2016) 20 4 5 6 8 16 25 31 46 58
2026-04-23 15:30 2.23 12 64 (2020) 4 (2016) 20 4 5 6 8 16 25 31 46 58
2026-04-23 14:30 2.24 13 64 (2020) 4 (2016) 20 4 5 6 8 16 25 31 46 58
2026-04-23 13:30 2.24 13 64 (2020) 4 (2016) 20 4 5 6 8 16 25 31 46 58
2026-04-23 12:30 2.24 13 64 (2020) 4 (2016) 20 4 5 6 8 16 25 31 46 58
2026-04-23 11:30 2.24 13 64 (2020) 4 (2016) 20 4 5 6 8 16 25 31 46 58
2026-04-23 10:30 2.24 13 64 (2020) 4 (2016) 20 4 5 6 8 16 25 31 46 58
2026-04-23 09:30 2.24 13 64 (2020) 4 (2016) 20 4 5 6 8 16 25 31 46 58
2026-04-23 08:30 2.24 13 64 (2020) 4 (2016) 20 4 5 6 8 16 25 31 46 58
2026-04-23 07:30 2.25 13 64 (2020) 4 (2016) 20 4 5 6 8 16 25 31 46 58
2026-04-23 06:30 2.25 13 64 (2020) 4 (2016) 20 4 5 6 8 16 25 31 46 58
2026-04-23 05:30 2.25 13 64 (2020) 4 (2016) 20 4 5 6 8 16 25 31 46 58
2026-04-23 04:30 2.25 13 64 (2020) 4 (2016) 20 4 5 6 8 16 25 31 46 58
2026-04-23 03:30 2.25 13 64 (2020) 4 (2016) 20 4 5 6 8 16 25 31 46 58
2026-04-23 02:30 2.25 13 64 (2020) 4 (2016) 20 4 5 6 8 16 25 31 46 58
2026-04-23 01:30 2.25 13 64 (2020) 4 (2016) 20 4 5 6 8 16 25 31 46 58
2026-04-23 00:30 2.25 13 64 (2020) 4 (2016) 20 4 5 6 8 16 25 31 46 58
2026-04-22 23:30 2.25 13 64 (2020) 4 (2016) 20 4 5 6 8 16 25 31 46 58
2026-04-22 22:30 2.25 13 108 (2017) 3 (2000) 25 3 4 6 7 16 38 44 60 77
2026-04-22 21:30 2.25 13 108 (2017) 3 (2000) 25 3 4 6 7 16 38 44 60 77
2026-04-22 20:30 2.26 14 108 (2017) 3 (2000) 25 3 4 6 7 16 38 44 60 77
2026-04-22 19:30 2.26 14 108 (2017) 3 (2000) 25 3 4 6 7 16 38 44 60 77
2026-04-22 18:30 2.26 14 108 (2017) 3 (2000) 25 3 4 6 7 16 38 44 60 77
2026-04-22 17:30 2.26 14 108 (2017) 3 (2000) 25 3 4 6 7 16 38 44 60 77
2026-04-22 16:30 2.26 14 108 (2017) 3 (2000) 25 3 4 6 7 16 38 44 60 77
2026-04-22 15:30 2.27 14 108 (2017) 3 (2000) 25 3 4 6 7 16 38 44 60 77
2026-04-22 14:30 2.27 14 108 (2017) 3 (2000) 25 3 4 6 7 16 38 44 60 77
2026-04-22 13:30 2.27 14 108 (2017) 3 (2000) 25 3 4 6 7 16 38 44 60 77
2026-04-22 12:30 2.27 14 108 (2017) 3 (2000) 25 3 4 6 7 16 38 44 60 77
2026-04-22 11:30 2.27 14 108 (2017) 3 (2000) 25 3 4 6 7 16 38 44 60 77
2026-04-22 10:30 2.27 14 108 (2017) 3 (2000) 25 3 4 6 7 16 38 44 60 77
2026-04-22 09:30 2.27 14 108 (2017) 3 (2000) 25 3 4 6 7 16 38 44 60 77
2026-04-22 08:30 2.28 15 108 (2017) 3 (2000) 25 3 4 6 7 16 38 44 60 77
2026-04-22 07:30 2.28 15 108 (2017) 3 (2000) 25 3 4 6 7 16 38 44 60 77
2026-04-22 06:30 2.28 15 108 (2017) 3 (2000) 25 3 4 6 7 16 38 44 60 77
2026-04-22 05:30 2.28 15 108 (2017) 3 (2000) 25 3 4 6 7 16 38 44 60 77
2026-04-22 04:30 2.29 15 108 (2017) 3 (2000) 25 3 4 6 7 16 38 44 60 77
2026-04-22 03:30 2.29 15 108 (2017) 3 (2000) 25 3 4 6 7 16 38 44 60 77
2026-04-22 02:30 2.29 15 108 (2017) 3 (2000) 25 3 4 6 7 16 38 44 60 77
2026-04-22 01:30 2.30 16 108 (2017) 3 (2000) 25 3 4 6 7 16 38 44 60 77
2026-04-22 00:30 2.30 16 108 (2017) 3 (2000) 25 3 4 6 7 16 38 44 60 77
2026-04-21 23:30 2.30 16 108 (2017) 3 (2000) 25 3 4 6 7 16 38 44 60 77
2026-04-21 22:30 2.30 16 358 (2017) 3 (2006) 30 3 4 7 8 15 24 29 67 132
2026-04-21 21:30 2.30 16 358 (2017) 3 (2006) 30 3 4 7 8 15 24 29 67 132
2026-04-21 20:30 2.30 16 358 (2017) 3 (2006) 30 3 4 7 8 15 24 29 67 132
2026-04-21 19:30 2.30 16 358 (2017) 3 (2006) 30 3 4 7 8 15 24 29 67 132
2026-04-21 18:30 2.30 16 358 (2017) 3 (2006) 30 3 4 7 8 15 24 29 67 132
2026-04-21 17:30 2.31 16 358 (2017) 3 (2006) 30 3 4 7 8 15 24 29 67 132
2026-04-21 16:30 2.31 16 358 (2017) 3 (2006) 30 3 4 7 8 15 24 29 67 132
2026-04-21 15:30 2.30 16 358 (2017) 3 (2006) 30 3 4 7 8 15 24 29 67 132
2026-04-21 14:30 2.31 16 358 (2017) 3 (2006) 30 3 4 7 8 15 24 29 67 132
2026-04-21 13:30 2.31 16 358 (2017) 3 (2006) 30 3 4 7 8 15 24 29 67 132
2026-04-21 12:30 2.31 16 358 (2017) 3 (2006) 30 3 4 7 8 15 24 29 67 132
2026-04-21 11:30 2.31 16 358 (2017) 3 (2006) 30 3 4 7 8 15 24 29 67 132
2026-04-21 10:30 2.31 16 358 (2017) 3 (2006) 30 3 4 7 8 15 24 29 67 132
2026-04-21 09:30 2.31 16 358 (2017) 3 (2006) 30 3 4 7 8 15 24 29 67 132
2026-04-21 08:30 2.31 16 358 (2017) 3 (2006) 30 3 4 7 8 15 24 29 67 132
2026-04-21 07:30 2.32 17 358 (2017) 3 (2006) 30 3 4 7 8 15 24 29 67 132
2026-04-21 06:30 2.32 17 358 (2017) 3 (2006) 30 3 4 7 8 15 24 29 67 132
2026-04-21 05:30 2.32 17 358 (2017) 3 (2006) 30 3 4 7 8 15 24 29 67 132
2026-04-21 04:30 2.32 17 358 (2017) 3 (2006) 30 3 4 7 8 15 24 29 67 132
2026-04-21 03:30 2.32 17 358 (2017) 3 (2006) 30 3 4 7 8 15 24 29 67 132
2026-04-21 02:30 2.33 18 358 (2017) 3 (2006) 30 3 4 7 8 15 24 29 67 132
2026-04-21 01:30 2.33 18 358 (2017) 3 (2006) 30 3 4 7 8 15 24 29 67 132
2026-04-21 00:30 2.34 18 358 (2017) 3 (2006) 30 3 4 7 8 15 24 29 67 132
2026-04-20 23:30 2.34 18 358 (2017) 3 (2006) 30 3 4 7 8 15 24 29 67 132
2026-04-20 22:30 2.34 18 372 (2025) 3 (2006) 40 4 5 7 8 12 35 49 101 275
2026-04-20 21:30 2.35 19 372 (2025) 3 (2006) 40 4 5 7 8 12 35 49 101 275
2026-04-20 20:30 2.35 19 372 (2025) 3 (2006) 40 4 5 7 8 12 35 49 101 275
2026-04-20 19:30 2.35 19 372 (2025) 3 (2006) 40 4 5 7 8 12 35 49 101 275
2026-04-20 18:30 2.36 19 372 (2025) 3 (2006) 40 4 5 7 8 12 35 49 101 275
2026-04-20 17:30 2.36 19 372 (2025) 3 (2006) 40 4 5 7 8 12 35 49 101 275
2026-04-20 16:30 2.36 19 372 (2025) 3 (2006) 40 4 5 7 8 12 35 49 101 275
2026-04-20 15:30 2.36 19 372 (2025) 3 (2006) 40 4 5 7 8 12 35 49 101 275
2026-04-20 14:30 2.37 20 372 (2025) 3 (2006) 40 4 5 7 8 12 35 49 101 275
2026-04-20 13:30 2.37 20 372 (2025) 3 (2006) 40 4 5 7 8 12 35 49 101 275
2026-04-20 12:30 2.39 21 372 (2025) 3 (2006) 40 4 5 7 8 12 35 49 101 275
2026-04-20 11:30 2.39 21 372 (2025) 3 (2006) 40 4 5 7 8 12 35 49 101 275
2026-04-20 10:30 2.39 21 372 (2025) 3 (2006) 40 4 5 7 8 12 35 49 101 275
2026-04-20 09:30 2.39 21 372 (2025) 3 (2006) 40 4 5 7 8 12 35 49 101 275
2026-04-20 08:30 2.40 22 372 (2025) 3 (2006) 40 4 5 7 8 12 35 49 101 275
2026-04-20 07:30 2.40 22 372 (2025) 3 (2006) 40 4 5 7 8 12 35 49 101 275
2026-04-20 06:30 2.40 22 372 (2025) 3 (2006) 40 4 5 7 8 12 35 49 101 275
2026-04-20 05:30 2.41 23 372 (2025) 3 (2006) 40 4 5 7 8 12 35 49 101 275
2026-04-20 04:30 2.41 23 372 (2025) 3 (2006) 40 4 5 7 8 12 35 49 101 275
2026-04-20 03:30 2.42 23 372 (2025) 3 (2006) 40 4 5 7 8 12 35 49 101 275
2026-04-20 02:30 2.42 23 372 (2025) 3 (2006) 40 4 5 7 8 12 35 49 101 275
2026-04-20 01:30 2.42 23 372 (2025) 3 (2006) 40 4 5 7 8 12 35 49 101 275
2026-04-20 00:30 2.43 24 372 (2025) 3 (2006) 40 4 5 7 8 12 35 49 101 275
2026-04-19 23:30 2.43 24 372 (2025) 3 (2006) 40 4 5 7 8 12 35 49 101 275
2026-04-19 22:30 2.44 25 216 (2025) 3 (2006) 24 3 4 6 7 12 21 22 37 194
2026-04-19 21:30 2.44 25 216 (2025) 3 (2006) 24 3 4 6 7 12 21 22 37 194
2026-04-19 20:30 2.44 25 216 (2025) 3 (2006) 24 3 4 6 7 12 21 22 37 194
2026-04-19 19:30 2.45 26 216 (2025) 3 (2006) 24 3 4 6 7 12 21 22 37 194
2026-04-19 18:30 2.45 26 216 (2025) 3 (2006) 24 3 4 6 7 12 21 22 37 194
2026-04-19 17:30 2.45 26 216 (2025) 3 (2006) 24 3 4 6 7 12 21 22 37 194
2026-04-19 16:30 2.45 26 216 (2025) 3 (2006) 24 3 4 6 7 12 21 22 37 194
2026-04-19 15:30 2.46 26 216 (2025) 3 (2006) 24 3 4 6 7 12 21 22 37 194
2026-04-19 14:30 2.46 26 216 (2025) 3 (2006) 24 3 4 6 7 12 21 22 37 194
2026-04-19 13:30 2.47 27 216 (2025) 3 (2006) 24 3 4 6 7 12 21 22 37 194
2026-04-19 12:30 2.47 27 216 (2025) 3 (2006) 24 3 4 6 7 12 21 22 37 194
2026-04-19 11:30 2.47 27 216 (2025) 3 (2006) 24 3 4 6 7 12 21 22 37 194
2026-04-19 10:30 2.48 28 216 (2025) 3 (2006) 24 3 4 6 7 12 21 22 37 194
2026-04-19 09:30 2.49 29 216 (2025) 3 (2006) 24 3 4 6 7 12 21 22 37 194
2026-04-19 08:30 2.49 29 216 (2025) 3 (2006) 24 3 4 6 7 12 21 22 37 194
2026-04-19 07:30 2.50 29 216 (2025) 3 (2006) 24 3 4 6 7 12 21 22 37 194
2026-04-19 06:30 2.51 30 216 (2025) 3 (2006) 24 3 4 6 7 12 21 22 37 194
2026-04-19 05:30 2.52 31 216 (2025) 3 (2006) 24 3 4 6 7 12 21 22 37 194
2026-04-19 04:30 2.52 31 216 (2025) 3 (2006) 24 3 4 6 7 12 21 22 37 194
2026-04-19 03:30 2.53 32 216 (2025) 3 (2006) 24 3 4 6 7 12 21 22 37 194
2026-04-19 02:30 2.54 33 216 (2025) 3 (2006) 24 3 4 6 7 12 21 22 37 194
2026-04-19 01:30 2.56 35 216 (2025) 3 (2006) 24 3 4 6 7 12 21 22 37 194
2026-04-19 00:30 2.56 35 216 (2025) 3 (2006) 24 3 4 6 7 12 21 22 37 194
2026-04-18 23:30 2.57 35 216 (2025) 3 (2006) 24 3 4 6 7 12 21 22 37 194
2026-04-18 22:30 2.58 36 115 (2013) 3 (2000) 18 3 4 6 7 12 23 25 41 66
2026-04-18 21:30 2.60 38 115 (2013) 3 (2000) 18 3 4 6 7 12 23 25 41 66
2026-04-18 20:30 2.61 39 115 (2013) 3 (2000) 18 3 4 6 7 12 23 25 41 66
2026-04-18 19:30 2.63 41 115 (2013) 3 (2000) 18 3 4 6 7 12 23 25 41 66
2026-04-18 18:30 2.65 43 115 (2013) 3 (2000) 18 3 4 6 7 12 23 25 41 66
2026-04-18 17:30 2.67 45 115 (2013) 3 (2000) 18 3 4 6 7 12 23 25 41 66
2026-04-18 16:30 2.70 49 115 (2013) 3 (2000) 18 3 4 6 7 12 23 25 41 66
2026-04-18 15:30 2.73 52 115 (2013) 3 (2000) 18 3 4 6 7 12 23 25 41 66
2026-04-18 14:30 2.77 57 115 (2013) 3 (2000) 18 3 4 6 7 12 23 25 41 66
2026-04-18 13:30 2.83 64 115 (2013) 3 (2000) 18 3 4 6 7 12 23 25 41 66
2026-04-18 12:30 2.90 74 115 (2013) 3 (2000) 18 3 4 6 7 12 23 25 41 66
2026-04-18 11:30 2.99 87 115 (2013) 3 (2000) 18 3 4 6 7 12 23 25 41 66
2026-04-18 10:30 3.09 99 115 (2013) 3 (2000) 18 3 4 6 7 12 23 25 41 66
2026-04-18 09:30 3.20 113 115 (2013) 3 (2000) 18 3 4 6 7 12 23 25 41 66
2026-04-18 08:30 3.32 129 115 (2013) 3 (2000) 18 3 4 6 7 12 23 25 41 66
2026-04-18 07:30 3.47 149 115 (2013) 3 (2000) 18 3 4 6 7 12 23 25 41 66
2026-04-18 06:30 3.74 184 115 (2013) 3 (2000) 18 3 4 6 7 12 23 25 41 66
2026-04-18 05:30 4.22 271 115 (2013) 3 (2000) 18 3 4 6 7 12 23 25 41 66
2026-04-18 04:30 4.42 312 115 (2013) 3 (2000) 18 3 4 6 7 12 23 25 41 66
2026-04-18 03:30 4.61 353 115 (2013) 3 (2000) 18 3 4 6 7 12 23 25 41 66
2026-04-18 02:30 5.66 620 115 (2013) 3 (2000) 18 3 4 6 7 12 23 25 41 66
2026-04-18 01:30 5.90 690 115 (2013) 3 (2000) 18 3 4 6 7 12 23 25 41 66
2026-04-18 00:30 4.81 399 115 (2013) 3 (2000) 18 3 4 6 7 12 23 25 41 66
2026-04-17 23:30 2.33 18 115 (2013) 3 (2000) 18 3 4 6 7 12 23 25 41 66
2026-04-17 22:30 2.27 14 79 (1933) 3 (2006) 17 3 5 6 7 11 23 25 38 66
2026-04-17 21:30 2.27 14 79 (1933) 3 (2006) 17 3 5 6 7 11 23 25 38 66
2026-04-17 20:30 2.27 14 79 (1933) 3 (2006) 17 3 5 6 7 11 23 25 38 66
2026-04-17 19:30 2.27 14 79 (1933) 3 (2006) 17 3 5 6 7 11 23 25 38 66
2026-04-17 18:30 2.26 14 79 (1933) 3 (2006) 17 3 5 6 7 11 23 25 38 66
2026-04-17 17:30 2.27 14 79 (1933) 3 (2006) 17 3 5 6 7 11 23 25 38 66
2026-04-17 16:30 2.27 14 79 (1933) 3 (2006) 17 3 5 6 7 11 23 25 38 66
2026-04-17 15:30 2.27 14 79 (1933) 3 (2006) 17 3 5 6 7 11 23 25 38 66
2026-04-17 14:30 2.28 15 79 (1933) 3 (2006) 17 3 5 6 7 11 23 25 38 66
2026-04-17 13:30 2.29 15 79 (1933) 3 (2006) 17 3 5 6 7 11 23 25 38 66
2026-04-17 12:30 2.30 16 79 (1933) 3 (2006) 17 3 5 6 7 11 23 25 38 66
2026-04-17 11:30 2.30 16 79 (1933) 3 (2006) 17 3 5 6 7 11 23 25 38 66
2026-04-17 10:30 2.30 16 79 (1933) 3 (2006) 17 3 5 6 7 11 23 25 38 66
2026-04-17 09:30 2.31 16 79 (1933) 3 (2006) 17 3 5 6 7 11 23 25 38 66
2026-04-17 08:30 2.31 16 79 (1933) 3 (2006) 17 3 5 6 7 11 23 25 38 66
2026-04-17 07:30 2.31 16 79 (1933) 3 (2006) 17 3 5 6 7 11 23 25 38 66
2026-04-17 06:30 2.31 16 79 (1933) 3 (2006) 17 3 5 6 7 11 23 25 38 66
2026-04-17 05:30 2.32 17 79 (1933) 3 (2006) 17 3 5 6 7 11 23 25 38 66
2026-04-17 04:30 2.33 18 79 (1933) 3 (2006) 17 3 5 6 7 11 23 25 38 66
2026-04-17 03:30 2.33 18 79 (1933) 3 (2006) 17 3 5 6 7 11 23 25 38 66
2026-04-17 02:30 2.34 18 79 (1933) 3 (2006) 17 3 5 6 7 11 23 25 38 66
2026-04-17 01:30 2.35 19 79 (1933) 3 (2006) 17 3 5 6 7 11 23 25 38 66
2026-04-17 00:30 2.35 19 79 (1933) 3 (2006) 17 3 5 6 7 11 23 25 38 66
2026-04-16 23:30 2.36 19 79 (1933) 3 (2006) 17 3 5 6 7 11 23 25 38 66
2026-04-16 22:30 2.36 19 122 (1933) 4 (2006) 19 5 6 8 9 13 22 25 37 56
2026-04-16 21:30 2.36 19 122 (1933) 4 (2006) 19 5 6 8 9 13 22 25 37 56
2026-04-16 20:30 2.37 20 122 (1933) 4 (2006) 19 5 6 8 9 13 22 25 37 56
2026-04-16 19:30 2.38 21 122 (1933) 4 (2006) 19 5 6 8 9 13 22 25 37 56
2026-04-16 18:30 2.39 21 122 (1933) 4 (2006) 19 5 6 8 9 13 22 25 37 56
2026-04-16 17:30 2.40 22 122 (1933) 4 (2006) 19 5 6 8 9 13 22 25 37 56
2026-04-16 16:30 2.41 23 122 (1933) 4 (2006) 19 5 6 8 9 13 22 25 37 56
2026-04-16 15:30 2.42 23 122 (1933) 4 (2006) 19 5 6 8 9 13 22 25 37 56
2026-04-16 14:30 2.43 24 122 (1933) 4 (2006) 19 5 6 8 9 13 22 25 37 56
2026-04-16 13:30 2.45 26 122 (1933) 4 (2006) 19 5 6 8 9 13 22 25 37 56
2026-04-16 12:30 2.48 28 122 (1933) 4 (2006) 19 5 6 8 9 13 22 25 37 56
2026-04-16 11:30 2.50 29 122 (1933) 4 (2006) 19 5 6 8 9 13 22 25 37 56
2026-04-16 10:30 2.52 31 122 (1933) 4 (2006) 19 5 6 8 9 13 22 25 37 56
2026-04-16 09:30 2.55 34 122 (1933) 4 (2006) 19 5 6 8 9 13 22 25 37 56
2026-04-16 08:30 2.59 37 122 (1933) 4 (2006) 19 5 6 8 9 13 22 25 37 56
2026-04-16 07:30 2.65 43 122 (1933) 4 (2006) 19 5 6 8 9 13 22 25 37 56
2026-04-16 06:30 2.70 49 122 (1933) 4 (2006) 19 5 6 8 9 13 22 25 37 56
2026-04-16 05:30 2.78 58 122 (1933) 4 (2006) 19 5 6 8 9 13 22 25 37 56
2026-04-16 04:30 2.87 69 122 (1933) 4 (2006) 19 5 6 8 9 13 22 25 37 56
2026-04-16 03:30 3.05 94 122 (1933) 4 (2006) 19 5 6 8 9 13 22 25 37 56
2026-04-16 02:30 3.40 140 122 (1933) 4 (2006) 19 5 6 8 9 13 22 25 37 56
2026-04-16 01:30 3.90 210 122 (1933) 4 (2006) 19 5 6 8 9 13 22 25 37 56
2026-04-16 00:30 3.70 179 122 (1933) 4 (2006) 19 5 6 8 9 13 22 25 37 56
2026-04-15 23:30 2.53 32 122 (1933) 4 (2006) 19 5 6 8 9 13 22 25 37 56
2026-04-15 22:30 2.59 37 348 (1933) 4 (2000) 31 5 7 7 9 15 28 37 64 109
2026-04-15 21:30 2.70 49 348 (1933) 4 (2000) 31 5 7 7 9 15 28 37 64 109
2026-04-15 20:30 2.97 84 348 (1933) 4 (2000) 31 5 7 7 9 15 28 37 64 109
2026-04-15 19:30 3.21 114 348 (1933) 4 (2000) 31 5 7 7 9 15 28 37 64 109
2026-04-15 18:30 2.48 28 348 (1933) 4 (2000) 31 5 7 7 9 15 28 37 64 109
2026-04-15 17:30 2.37 20 348 (1933) 4 (2000) 31 5 7 7 9 15 28 37 64 109
2026-04-15 16:30 2.38 21 348 (1933) 4 (2000) 31 5 7 7 9 15 28 37 64 109
2026-04-15 15:30 2.40 22 348 (1933) 4 (2000) 31 5 7 7 9 15 28 37 64 109
2026-04-15 14:30 2.44 25 348 (1933) 4 (2000) 31 5 7 7 9 15 28 37 64 109
2026-04-15 13:30 2.49 29 348 (1933) 4 (2000) 31 5 7 7 9 15 28 37 64 109
2026-04-15 12:30 2.55 34 348 (1933) 4 (2000) 31 5 7 7 9 15 28 37 64 109
2026-04-15 11:30 2.64 42 348 (1933) 4 (2000) 31 5 7 7 9 15 28 37 64 109
2026-04-15 10:30 2.77 57 348 (1933) 4 (2000) 31 5 7 7 9 15 28 37 64 109
2026-04-15 09:30 3.09 99 348 (1933) 4 (2000) 31 5 7 7 9 15 28 37 64 109
2026-04-15 08:30 3.21 114 348 (1933) 4 (2000) 31 5 7 7 9 15 28 37 64 109
2026-04-15 07:30 2.54 33 348 (1933) 4 (2000) 31 5 7 7 9 15 28 37 64 109
2026-04-15 06:30 2.57 35 348 (1933) 4 (2000) 31 5 7 7 9 15 28 37 64 109
2026-04-15 05:30 2.69 47 348 (1933) 4 (2000) 31 5 7 7 9 15 28 37 64 109
2026-04-15 04:30 2.77 57 348 (1933) 4 (2000) 31 5 7 7 9 15 28 37 64 109
2026-04-15 03:30 2.69 47 348 (1933) 4 (2000) 31 5 7 7 9 15 28 37 64 109
2026-04-15 02:30 2.14 8 348 (1933) 4 (2000) 31 5 7 7 9 15 28 37 64 109
2026-04-15 01:30 2.13 8 348 (1933) 4 (2000) 31 5 7 7 9 15 28 37 64 109
2026-04-15 00:30 2.12 8 348 (1933) 4 (2000) 31 5 7 7 9 15 28 37 64 109
2026-04-14 23:30 2.12 8 348 (1933) 4 (2000) 31 5 7 7 9 15 28 37 64 109
2026-04-14 22:30 2.12 8 292 (1999) 4 (2000) 28 4 6 7 8 13 22 25 69 140
2026-04-14 21:30 2.13 8 292 (1999) 4 (2000) 28 4 6 7 8 13 22 25 69 140
2026-04-14 20:30 2.13 8 292 (1999) 4 (2000) 28 4 6 7 8 13 22 25 69 140
2026-04-14 19:30 2.13 8 292 (1999) 4 (2000) 28 4 6 7 8 13 22 25 69 140
2026-04-14 18:30 2.14 8 292 (1999) 4 (2000) 28 4 6 7 8 13 22 25 69 140
2026-04-14 17:30 2.13 8 292 (1999) 4 (2000) 28 4 6 7 8 13 22 25 69 140
2026-04-14 16:30 2.13 8 292 (1999) 4 (2000) 28 4 6 7 8 13 22 25 69 140
2026-04-14 15:30 2.14 8 292 (1999) 4 (2000) 28 4 6 7 8 13 22 25 69 140
2026-04-14 14:30 2.13 8 292 (1999) 4 (2000) 28 4 6 7 8 13 22 25 69 140
2026-04-14 13:30 2.13 8 292 (1999) 4 (2000) 28 4 6 7 8 13 22 25 69 140
2026-04-14 12:30 2.13 8 292 (1999) 4 (2000) 28 4 6 7 8 13 22 25 69 140
2026-04-14 11:30 2.13 8 292 (1999) 4 (2000) 28 4 6 7 8 13 22 25 69 140
2026-04-14 09:30 2.13 8 292 (1999) 4 (2000) 28 4 6 7 8 13 22 25 69 140
2026-04-14 08:30 2.13 8 292 (1999) 4 (2000) 28 4 6 7 8 13 22 25 69 140
2026-04-14 07:30 2.12 8 292 (1999) 4 (2000) 28 4 6 7 8 13 22 25 69 140
2026-04-14 06:30 2.13 8 292 (1999) 4 (2000) 28 4 6 7 8 13 22 25 69 140
2026-04-14 05:30 2.13 8 292 (1999) 4 (2000) 28 4 6 7 8 13 22 25 69 140
2026-04-14 04:30 2.13 8 292 (1999) 4 (2000) 28 4 6 7 8 13 22 25 69 140
2026-04-14 03:30 2.13 8 292 (1999) 4 (2000) 28 4 6 7 8 13 22 25 69 140
2026-04-14 02:30 2.13 8 292 (1999) 4 (2000) 28 4 6 7 8 13 22 25 69 140
2026-04-14 01:30 2.13 8 292 (1999) 4 (2000) 28 4 6 7 8 13 22 25 69 140
2026-04-14 00:30 2.14 8 292 (1999) 4 (2000) 28 4 6 7 8 13 22 25 69 140
2026-04-13 23:30 2.14 8 292 (1999) 4 (2000) 28 4 6 7 8 13 22 25 69 140
2026-04-13 22:30 2.14 8 101 (2007) 4 (2000) 21 4 6 8 8 14 27 30 39 88
2026-04-13 21:30 2.15 9 101 (2007) 4 (2000) 21 4 6 8 8 14 27 30 39 88
2026-04-13 20:30 2.15 9 101 (2007) 4 (2000) 21 4 6 8 8 14 27 30 39 88
2026-04-13 19:30 2.16 9 101 (2007) 4 (2000) 21 4 6 8 8 14 27 30 39 88
2026-04-13 18:30 2.16 9 101 (2007) 4 (2000) 21 4 6 8 8 14 27 30 39 88
2026-04-13 17:30 2.18 10 101 (2007) 4 (2000) 21 4 6 8 8 14 27 30 39 88
2026-04-13 16:30 2.18 10 101 (2007) 4 (2000) 21 4 6 8 8 14 27 30 39 88
2026-04-13 15:30 2.19 10 101 (2007) 4 (2000) 21 4 6 8 8 14 27 30 39 88
2026-04-13 14:30 2.19 10 101 (2007) 4 (2000) 21 4 6 8 8 14 27 30 39 88
2026-04-13 13:30 2.19 10 101 (2007) 4 (2000) 21 4 6 8 8 14 27 30 39 88
2026-04-13 12:30 2.18 10 101 (2007) 4 (2000) 21 4 6 8 8 14 27 30 39 88
2026-04-13 11:30 2.16 9 101 (2007) 4 (2000) 21 4 6 8 8 14 27 30 39 88
2026-04-13 10:30 2.15 9 101 (2007) 4 (2000) 21 4 6 8 8 14 27 30 39 88
2026-04-13 09:30 2.15 9 101 (2007) 4 (2000) 21 4 6 8 8 14 27 30 39 88
2026-04-13 08:30 2.16 9 101 (2007) 4 (2000) 21 4 6 8 8 14 27 30 39 88
2026-04-13 07:30 2.16 9 101 (2007) 4 (2000) 21 4 6 8 8 14 27 30 39 88
2026-04-13 06:30 2.17 10 101 (2007) 4 (2000) 21 4 6 8 8 14 27 30 39 88
2026-04-13 05:30 2.17 10 101 (2007) 4 (2000) 21 4 6 8 8 14 27 30 39 88
2026-04-13 04:30 2.17 10 101 (2007) 4 (2000) 21 4 6 8 8 14 27 30 39 88
2026-04-13 03:30 2.17 10 101 (2007) 4 (2000) 21 4 6 8 8 14 27 30 39 88
2026-04-13 02:30 2.18 10 101 (2007) 4 (2000) 21 4 6 8 8 14 27 30 39 88
2026-04-13 01:30 2.18 10 101 (2007) 4 (2000) 21 4 6 8 8 14 27 30 39 88
2026-04-13 00:30 2.18 10 101 (2007) 4 (2000) 21 4 6 8 8 14 27 30 39 88
2026-04-12 23:30 2.18 10 101 (2007) 4 (2000) 21 4 6 8 8 14 27 30 39 88
2026-04-12 22:30 2.19 10 70 (2009) 4 (2006) 16 4 5 7 7 11 19 24 33 55
2026-04-12 21:30 2.20 11 70 (2009) 4 (2006) 16 4 5 7 7 11 19 24 33 55
2026-04-12 20:30 2.20 11 70 (2009) 4 (2006) 16 4 5 7 7 11 19 24 33 55
2026-04-12 19:30 2.18 10 70 (2009) 4 (2006) 16 4 5 7 7 11 19 24 33 55
2026-04-12 18:30 2.17 10 70 (2009) 4 (2006) 16 4 5 7 7 11 19 24 33 55
2026-04-12 17:30 2.17 10 70 (2009) 4 (2006) 16 4 5 7 7 11 19 24 33 55
2026-04-12 16:30 2.17 10 70 (2009) 4 (2006) 16 4 5 7 7 11 19 24 33 55
2026-04-12 15:30 2.17 10 70 (2009) 4 (2006) 16 4 5 7 7 11 19 24 33 55
2026-04-12 14:30 2.17 10 70 (2009) 4 (2006) 16 4 5 7 7 11 19 24 33 55
2026-04-12 13:30 2.17 10 70 (2009) 4 (2006) 16 4 5 7 7 11 19 24 33 55
2026-04-12 12:30 2.17 10 70 (2009) 4 (2006) 16 4 5 7 7 11 19 24 33 55
2026-04-12 11:30 2.17 10 70 (2009) 4 (2006) 16 4 5 7 7 11 19 24 33 55
2026-04-12 10:30 2.18 10 70 (2009) 4 (2006) 16 4 5 7 7 11 19 24 33 55
2026-04-12 09:30 2.18 10 70 (2009) 4 (2006) 16 4 5 7 7 11 19 24 33 55
2026-04-12 08:30 2.19 10 70 (2009) 4 (2006) 16 4 5 7 7 11 19 24 33 55
2026-04-12 07:30 2.19 10 70 (2009) 4 (2006) 16 4 5 7 7 11 19 24 33 55
2026-04-12 06:30 2.19 10 70 (2009) 4 (2006) 16 4 5 7 7 11 19 24 33 55
2026-04-12 05:30 2.19 10 70 (2009) 4 (2006) 16 4 5 7 7 11 19 24 33 55
2026-04-12 04:30 2.19 10 70 (2009) 4 (2006) 16 4 5 7 7 11 19 24 33 55
2026-04-12 03:30 2.20 11 70 (2009) 4 (2006) 16 4 5 7 7 11 19 24 33 55
2026-04-12 02:30 2.20 11 70 (2009) 4 (2006) 16 4 5 7 7 11 19 24 33 55
2026-04-12 01:30 2.21 11 70 (2009) 4 (2006) 16 4 5 7 7 11 19 24 33 55
2026-04-12 00:30 2.21 11 70 (2009) 4 (2006) 16 4 5 7 7 11 19 24 33 55
2026-04-11 23:30 2.22 12 70 (2009) 4 (2006) 16 4 5 7 7 11 19 24 33 55
2026-04-11 22:30 2.23 12 112 (2022) 4 (2006) 22 5 5 7 8 13 29 34 53 77
2026-04-11 21:30 2.25 13 112 (2022) 4 (2006) 22 5 5 7 8 13 29 34 53 77
2026-04-11 20:30 2.27 14 112 (2022) 4 (2006) 22 5 5 7 8 13 29 34 53 77
2026-04-11 19:30 2.32 17 112 (2022) 4 (2006) 22 5 5 7 8 13 29 34 53 77
2026-04-11 18:30 2.37 20 112 (2022) 4 (2006) 22 5 5 7 8 13 29 34 53 77
2026-04-11 17:30 2.25 13 112 (2022) 4 (2006) 22 5 5 7 8 13 29 34 53 77
2026-04-11 16:30 2.26 14 112 (2022) 4 (2006) 22 5 5 7 8 13 29 34 53 77
2026-04-11 15:30 2.26 14 112 (2022) 4 (2006) 22 5 5 7 8 13 29 34 53 77
2026-04-11 14:30 2.27 14 112 (2022) 4 (2006) 22 5 5 7 8 13 29 34 53 77
2026-04-11 13:30 2.27 14 112 (2022) 4 (2006) 22 5 5 7 8 13 29 34 53 77
2026-04-11 12:30 2.25 13 112 (2022) 4 (2006) 22 5 5 7 8 13 29 34 53 77
2026-04-11 11:30 2.25 13 112 (2022) 4 (2006) 22 5 5 7 8 13 29 34 53 77
2026-04-11 10:30 2.26 14 112 (2022) 4 (2006) 22 5 5 7 8 13 29 34 53 77
2026-04-11 09:30 2.26 14 112 (2022) 4 (2006) 22 5 5 7 8 13 29 34 53 77
2026-04-11 08:30 2.27 14 112 (2022) 4 (2006) 22 5 5 7 8 13 29 34 53 77
2026-04-11 07:30 2.28 15 112 (2022) 4 (2006) 22 5 5 7 8 13 29 34 53 77
2026-04-11 06:30 2.29 15 112 (2022) 4 (2006) 22 5 5 7 8 13 29 34 53 77
2026-04-11 05:30 2.30 16 112 (2022) 4 (2006) 22 5 5 7 8 13 29 34 53 77
2026-04-11 04:30 2.31 16 112 (2022) 4 (2006) 22 5 5 7 8 13 29 34 53 77
2026-04-11 03:30 2.33 18 112 (2022) 4 (2006) 22 5 5 7 8 13 29 34 53 77
2026-04-11 02:30 2.35 19 112 (2022) 4 (2006) 22 5 5 7 8 13 29 34 53 77
2026-04-11 01:30 2.37 20 112 (2022) 4 (2006) 22 5 5 7 8 13 29 34 53 77
2026-04-11 00:30 2.39 21 112 (2022) 4 (2006) 22 5 5 7 8 13 29 34 53 77
2026-04-10 23:30 2.42 23 112 (2022) 4 (2006) 22 5 5 7 8 13 29 34 53 77
2026-04-10 22:30 2.46 26 636 (2008) 4 (2001) 35 4 5 7 8 13 23 26 49 167
2026-04-10 21:30 2.51 30 636 (2008) 4 (2001) 35 4 5 7 8 13 23 26 49 167
2026-04-10 20:30 2.57 35 636 (2008) 4 (2001) 35 4 5 7 8 13 23 26 49 167
2026-04-10 19:30 2.64 42 636 (2008) 4 (2001) 35 4 5 7 8 13 23 26 49 167
2026-04-10 18:30 2.77 57 636 (2008) 4 (2001) 35 4 5 7 8 13 23 26 49 167
2026-04-10 17:30 3.05 94 636 (2008) 4 (2001) 35 4 5 7 8 13 23 26 49 167
2026-04-10 16:30 3.48 151 636 (2008) 4 (2001) 35 4 5 7 8 13 23 26 49 167
2026-04-10 15:30 3.97 223 636 (2008) 4 (2001) 35 4 5 7 8 13 23 26 49 167
2026-04-10 14:30 3.93 216 636 (2008) 4 (2001) 35 4 5 7 8 13 23 26 49 167
2026-04-10 13:30 2.72 51 636 (2008) 4 (2001) 35 4 5 7 8 13 23 26 49 167
2026-04-10 12:30 2.07 6 636 (2008) 4 (2001) 35 4 5 7 8 13 23 26 49 167
2026-04-10 11:30 2.06 6 636 (2008) 4 (2001) 35 4 5 7 8 13 23 26 49 167
2026-04-10 10:30 2.06 6 636 (2008) 4 (2001) 35 4 5 7 8 13 23 26 49 167
2026-04-10 09:30 2.06 6 636 (2008) 4 (2001) 35 4 5 7 8 13 23 26 49 167
2026-04-10 08:30 2.06 6 636 (2008) 4 (2001) 35 4 5 7 8 13 23 26 49 167
2026-04-10 07:30 2.06 6 636 (2008) 4 (2001) 35 4 5 7 8 13 23 26 49 167
2026-04-10 06:30 2.05 5 636 (2008) 4 (2001) 35 4 5 7 8 13 23 26 49 167
2026-04-10 05:30 2.06 6 636 (2008) 4 (2001) 35 4 5 7 8 13 23 26 49 167
2026-04-10 04:30 2.05 5 636 (2008) 4 (2001) 35 4 5 7 8 13 23 26 49 167
2026-04-10 03:30 2.06 6 636 (2008) 4 (2001) 35 4 5 7 8 13 23 26 49 167
2026-04-10 02:30 2.06 6 636 (2008) 4 (2001) 35 4 5 7 8 13 23 26 49 167
2026-04-10 01:30 2.06 6 636 (2008) 4 (2001) 35 4 5 7 8 13 23 26 49 167
2026-04-10 00:30 2.06 6 636 (2008) 4 (2001) 35 4 5 7 8 13 23 26 49 167
2026-04-09 23:30 2.06 6 636 (2008) 4 (2001) 35 4 5 7 8 13 23 26 49 167

A total of 734 rows are displayed for years 1933 through 2025.